createdAt,value
2023-04-22T00:03:35.269Z,79.40
2023-04-22T00:08:36.563Z,54.90
2023-04-22T00:13:37.747Z,60.80
2023-04-22T00:18:38.893Z,55.70
2023-04-22T00:23:40.396Z,61.20
2023-04-22T00:28:41.528Z,52.90
2023-04-22T00:33:43.191Z,48.10
2023-04-22T00:38:48.716Z,53.40
2023-04-22T00:43:51.906Z,73.90
2023-04-22T00:48:53.626Z,96.30
2023-04-22T00:53:55.215Z,57.70
2023-04-22T00:58:57.310Z,54.20
2023-04-22T01:04:00.393Z,58.70
2023-04-22T01:09:02.104Z,66.90
2023-04-22T01:14:04.024Z,64.50
2023-04-22T01:19:05.867Z,66.60
2023-04-22T01:24:07.745Z,95.10
2023-04-22T01:29:09.051Z,68.80
2023-04-22T01:34:10.750Z,81.30
2023-04-22T01:39:12.241Z,71.10
2023-04-22T01:44:14.002Z,69.00
2023-04-22T01:49:15.486Z,51.60
2023-04-22T01:54:17.777Z,59.10
2023-04-22T01:59:20.680Z,54.00
2023-04-22T02:04:21.842Z,83.40
2023-04-22T02:09:23.765Z,65.80
2023-04-22T02:14:25.836Z,63.90
2023-04-22T02:19:27.793Z,63.00
2023-04-22T02:24:29.526Z,61.30
2023-04-22T02:29:32.669Z,58.20
2023-04-22T02:34:33.722Z,62.20
2023-04-22T02:39:34.898Z,61.20
2023-04-22T02:44:36.210Z,91.10
2023-04-22T02:49:37.488Z,68.50
2023-04-22T02:54:39.175Z,68.00
2023-04-22T02:59:40.563Z,60.60
2023-04-22T03:04:42.454Z,57.70
2023-04-22T03:09:43.461Z,58.50
2023-04-22T03:14:44.679Z,69.20
2023-04-22T03:19:46.504Z,102.90
2023-04-22T03:24:48.330Z,84.10
2023-04-22T03:29:49.554Z,42.90
2023-04-22T03:34:50.767Z,49.40
2023-04-22T03:39:52.958Z,51.90
2023-04-22T03:44:54.613Z,42.50
2023-04-22T03:49:57.935Z,100.90
2023-04-22T03:54:59.098Z,74.50
2023-04-22T04:00:01.287Z,69.80
2023-04-22T04:05:02.765Z,68.10
2023-04-22T04:10:04.870Z,70.90
2023-04-22T04:15:07.173Z,69.80
2023-04-22T04:20:10.016Z,66.70
2023-04-22T04:25:12.582Z,59.70
2023-04-22T04:30:17.782Z,61.20
2023-04-22T04:35:23.251Z,56.70
2023-04-22T04:40:28.575Z,49.00
2023-04-22T04:45:58.778Z,45.40
2023-04-22T04:51:05.473Z,34.40
2023-04-22T04:56:08.756Z,58.80
2023-04-22T05:01:10.434Z,111.20
2023-04-22T05:06:11.968Z,80.60
2023-04-22T05:11:13.795Z,147.40
2023-04-22T05:16:15.732Z,123.50
2023-04-22T05:21:16.950Z,66.10
2023-04-22T05:26:18.794Z,56.30
2023-04-22T05:31:21.804Z,43.60
2023-04-22T05:36:22.929Z,50.40
2023-04-22T05:41:24.065Z,56.90
2023-04-22T05:46:25.442Z,38.10
2023-04-22T05:51:26.753Z,51.40
2023-04-22T05:56:28.167Z,52.20
2023-04-22T06:01:29.211Z,52.50
2023-04-22T06:06:36.514Z,66.10
2023-04-22T06:11:37.689Z,50.80
2023-04-22T06:16:39.338Z,56.40
2023-04-22T06:21:41.931Z,52.60
2023-04-22T06:26:43.198Z,49.30
2023-04-22T06:31:44.900Z,41.70
2023-04-22T06:36:46.203Z,49.50
2023-04-22T06:41:48.533Z,37.00
2023-04-22T06:47:09.949Z,35.90
2023-04-22T06:52:24.238Z,41.80
2023-04-22T06:57:27.049Z,31.70
2023-04-22T07:02:28.382Z,35.10
2023-04-22T07:07:29.674Z,28.20
2023-04-22T07:12:30.790Z,35.90
2023-04-22T07:17:32.026Z,38.80
2023-04-22T07:22:33.146Z,37.70
2023-04-22T07:27:37.045Z,29.80
2023-04-22T07:32:38.654Z,34.10
2023-04-22T07:37:39.812Z,38.40
2023-04-22T07:42:40.799Z,32.30
2023-04-22T07:47:41.888Z,27.30
2023-04-22T07:52:42.865Z,26.80
2023-04-22T07:57:43.920Z,19.70
2023-04-22T08:02:46.263Z,19.60
2023-04-22T08:07:47.322Z,17.00
2023-04-22T08:12:48.594Z,11.50
2023-04-22T08:17:49.782Z,13.70
2023-04-22T08:22:52.442Z,19.20
2023-04-22T08:27:53.605Z,21.70
2023-04-22T08:32:54.829Z,19.30
2023-04-22T08:37:55.962Z,11.80
2023-04-22T08:42:57.016Z,12.70
2023-04-22T08:47:58.932Z,12.30
2023-04-22T08:53:00.015Z,7.60
2023-04-22T08:58:03.422Z,6.90
2023-04-22T09:03:06.362Z,11.90
2023-04-22T09:08:08.281Z,7.00
2023-04-22T09:13:09.724Z,7.20
2023-04-22T09:18:10.764Z,7.60
2023-04-22T09:23:12.494Z,10.70
2023-04-22T09:28:18.200Z,8.70
2023-04-22T09:33:19.576Z,7.50
2023-04-22T09:38:20.574Z,8.90
2023-04-22T09:43:22.106Z,9.50
2023-04-22T09:48:23.358Z,7.10
2023-04-22T09:53:24.652Z,9.30
2023-04-22T09:58:26.987Z,7.10
2023-04-22T10:03:28.323Z,7.90
2023-04-22T10:08:29.961Z,8.50
2023-04-22T10:13:31.207Z,10.40
2023-04-22T10:18:33.818Z,9.00
2023-04-22T10:23:35.003Z,6.40
2023-04-22T10:28:43.316Z,9.60
2023-04-22T10:33:44.410Z,9.90
2023-04-22T10:38:54.500Z,7.80
2023-04-22T10:43:58.283Z,6.90
2023-04-22T10:49:10.688Z,5.60
2023-04-22T10:54:29.573Z,5.20
2023-04-22T10:59:41.609Z,5.10
2023-04-22T11:04:44.248Z,7.10
2023-04-22T11:09:49.020Z,6.00
2023-04-22T11:14:50.267Z,5.00
2023-04-22T11:19:55.499Z,6.30
2023-04-22T11:24:58.450Z,6.30
2023-04-22T11:30:10.371Z,10.50
2023-04-22T11:35:13.893Z,5.90
2023-04-22T11:40:30.608Z,5.90
2023-04-22T11:45:34.423Z,10.60
2023-04-22T11:50:37.735Z,9.10
2023-04-22T11:55:40.268Z,5.10
2023-04-22T12:00:51.878Z,7.50
2023-04-22T12:06:01.405Z,4.80
2023-04-22T12:11:08.628Z,6.70
2023-04-22T12:16:14.751Z,3.70
2023-04-22T12:21:24.517Z,4.20
2023-04-22T12:26:27.275Z,7.20
2023-04-22T12:31:29.308Z,4.20
2023-04-22T12:36:31.740Z,4.40
2023-04-22T12:41:32.852Z,6.70
2023-04-22T12:46:35.345Z,4.50
2023-04-22T12:51:36.429Z,4.50
2023-04-22T12:56:37.536Z,5.10
2023-04-22T13:01:38.732Z,4.50
2023-04-22T13:06:42.932Z,5.10
2023-04-22T13:11:48.511Z,4.10
2023-04-22T13:16:49.505Z,6.10
2023-04-22T13:21:50.565Z,7.00
2023-04-22T13:26:51.618Z,5.60
2023-04-22T13:31:52.841Z,6.80
2023-04-22T13:36:54.898Z,5.70
2023-04-22T13:41:56.422Z,6.90
2023-04-22T13:46:57.580Z,5.20
2023-04-22T13:51:58.571Z,4.90
2023-04-22T13:56:59.793Z,5.10
2023-04-22T14:02:00.833Z,4.90
2023-04-22T14:07:01.952Z,4.40
2023-04-22T14:12:05.499Z,4.70
2023-04-22T14:17:07.360Z,5.60
2023-04-22T14:22:08.423Z,7.50
2023-04-22T14:27:11.922Z,4.60
2023-04-22T14:32:13.530Z,5.20
2023-04-22T14:37:14.630Z,4.80
2023-04-22T14:42:17.695Z,5.30
2023-04-22T14:47:18.721Z,4.10
2023-04-22T14:52:19.982Z,5.10
2023-04-22T14:57:21.008Z,4.00
2023-04-22T15:02:22.290Z,6.30
2023-04-22T15:07:23.439Z,6.30
2023-04-22T15:12:25.729Z,4.30
2023-04-22T15:17:28.307Z,4.00
2023-04-22T15:22:29.573Z,8.90
2023-04-22T15:27:31.059Z,5.20
2023-04-22T15:32:32.247Z,4.00
2023-04-22T15:37:33.505Z,4.30
2023-04-22T15:42:34.576Z,4.70
2023-04-22T15:47:36.608Z,5.00
2023-04-22T15:52:38.276Z,4.40
2023-04-22T15:57:39.342Z,6.00
2023-04-22T16:02:41.834Z,6.20
2023-04-22T16:07:43.180Z,5.10
2023-04-22T16:12:44.143Z,6.10
2023-04-22T16:17:45.359Z,7.10
2023-04-22T16:22:46.460Z,5.80
2023-04-22T16:27:47.647Z,5.70
2023-04-22T16:32:48.805Z,10.10
2023-04-22T16:37:50.056Z,6.80
2023-04-22T16:42:51.735Z,4.80
2023-04-22T16:47:52.898Z,5.70
2023-04-22T16:52:54.210Z,6.10
2023-04-22T16:57:57.152Z,5.30
2023-04-22T17:02:58.393Z,8.70
2023-04-22T17:07:59.607Z,5.60
2023-04-22T17:13:00.865Z,9.30
2023-04-22T17:18:02.086Z,9.60
2023-04-22T17:23:03.688Z,12.00
2023-04-22T17:28:05.054Z,15.00
2023-04-22T17:33:06.451Z,11.10
2023-04-22T17:38:07.511Z,12.00
2023-04-22T17:43:08.509Z,12.10
2023-04-22T17:48:09.471Z,13.20
2023-04-22T17:53:10.827Z,11.00
2023-04-22T17:58:11.784Z,14.50
2023-04-22T18:03:13.772Z,12.40
2023-04-22T18:08:15.392Z,11.60
2023-04-22T18:13:16.584Z,19.40
2023-04-22T18:18:17.532Z,26.50
2023-04-22T18:23:18.572Z,45.80
2023-04-22T18:28:19.890Z,50.30
2023-04-22T18:33:20.886Z,59.70
2023-04-22T18:38:22.079Z,62.50
2023-04-22T18:43:23.496Z,57.90
2023-04-22T18:48:24.488Z,50.70
2023-04-22T18:53:25.722Z,59.30
2023-04-22T18:58:26.890Z,50.60
2023-04-22T19:03:28.250Z,36.80
2023-04-22T19:08:29.598Z,47.50
2023-04-22T19:13:30.854Z,38.10
2023-04-22T19:18:31.825Z,33.40
2023-04-22T19:23:34.098Z,36.20
2023-04-22T19:28:35.957Z,28.10
2023-04-22T19:33:37.337Z,30.00
2023-04-22T19:38:38.422Z,49.00
2023-04-22T19:43:39.895Z,51.50
2023-04-22T19:48:41.169Z,57.20
2023-04-22T19:53:42.885Z,73.60
2023-04-22T19:58:45.401Z,60.80
2023-04-22T20:03:50.752Z,67.70
2023-04-22T20:08:53.551Z,59.90
2023-04-22T20:13:55.998Z,89.00
2023-04-22T20:18:57.062Z,72.10
2023-04-22T20:24:01.128Z,66.40
2023-04-22T20:29:02.540Z,63.30
2023-04-22T20:34:04.249Z,70.70
2023-04-22T20:39:05.586Z,74.60
2023-04-22T20:44:07.071Z,64.60
2023-04-22T20:49:08.144Z,49.40
2023-04-22T20:54:21.204Z,44.50
2023-04-22T20:59:29.234Z,49.50
2023-04-22T21:04:31.379Z,51.10
2023-04-22T21:09:33.877Z,54.60
2023-04-22T21:14:44.159Z,71.80
2023-04-22T21:19:47.753Z,69.10
2023-04-22T21:24:50.204Z,66.40
2023-04-22T21:29:51.980Z,87.60
2023-04-22T21:34:56.163Z,67.80
2023-04-22T21:39:59.779Z,62.30
2023-04-22T21:45:02.995Z,62.20
2023-04-22T21:50:09.660Z,65.90
2023-04-22T21:55:10.941Z,66.10
2023-04-22T22:00:17.683Z,59.60
2023-04-22T22:05:18.856Z,71.50
2023-04-22T22:10:19.997Z,59.90
2023-04-22T22:15:21.281Z,62.70
2023-04-22T22:20:23.138Z,62.10
2023-04-22T22:25:24.441Z,55.80
2023-04-22T22:30:25.846Z,45.30
2023-04-22T22:35:27.047Z,49.20
2023-04-22T22:40:28.038Z,55.60
2023-04-22T22:45:29.230Z,50.70
2023-04-22T22:50:30.419Z,61.50
2023-04-22T22:55:33.226Z,58.60
2023-04-22T23:00:34.424Z,61.10
2023-04-22T23:05:35.597Z,62.90
2023-04-22T23:10:38.930Z,58.20
2023-04-22T23:16:00.827Z,58.20
2023-04-22T23:21:31.954Z,68.90
2023-04-22T23:26:33.617Z,69.60
2023-04-22T23:31:35.169Z,56.40
2023-04-22T23:36:36.769Z,55.50
2023-04-22T23:41:38.558Z,48.60
2023-04-22T23:46:42.480Z,38.90
2023-04-22T23:51:45.798Z,34.90
2023-04-22T23:56:47.099Z,43.80
